Newburyport, Massachusetts
Current Conditions -  °F | °C
As of 5:54 AM on Sunday 23 Nov 2014 (Local Time) from KLWM Reporting Station
Broken Clouds Broken Clouds  
Wind Chill: 36°   Ceiling: 12000
Heat Index: 42°   Visibility: 10mi
Dew Point: 28°   Wind: 10mph
Humidity: 58%   Direction: 220°SW
Pressure: 30.08"   Gusts: NA
Location:  42.81°N, 70.87°W
Report Text: KLWM 231054Z AUTO 22009KT 10SM SCT095 BKN120 06/M02 A3008 RMK AO2 SLP186 T00561022
Loading
Personal Weather Stations






























Interactive Weather Map New forecast layout! Learn more

10-Day Weather Forecast

Advertisements
Track Severe Weather on mobile